Accueil
METAR-TAF:

METAR-TAF

Aéroports :

Wittering, Angleterre

latitude: 52-37N, longitude: 000-28W, altitude: 84 m

Observation

Le bulletin a été fait il y a 59 minutes, à 17:50 UTC
Vent 3 kt de sud-ouest
Température 12°C
Humidité 67%
Pression 1016 hPa
Visibilité 10 km ou plus

METAR: EGXT 171750Z AUTO 22003KT 9999 BKN100/// BKN160/// BKN240/// 12/06 Q1016

Heure: 19:49 (18:49 UTC)

Prévision

Le bulletin a été fait il y a 5 heures et 33 minutes, à 13:16 UTC
Prévision valable du 17 à 15 UTC au 17 à 18 UTC
Vent 13 kt de ouest
Visibilité 10 km ou plus
Quelques nuages à une hauteur de 3000 ft

TAF: EGXT 171316Z 1715/1718 26013KT 9999 FEW030

Observations et prévisions météorologiques de plus de 4000 aéroports (messages METAR et TAF).

Les stations disponibles sont représentées par des disques jaunes et rouges sur la carte.

Passer la souris dessus pour voir le nom de la station.

Cliquer dessus pour voir les observations et prévisions météorologiques.

Pour changer de carte: cliquez sur les boutons verts avec une croix noire pour zoomer, sur le bouton vert avec un tiret pour effectuer un zoom arrière, ou sur les flèches vertes pour les cartes adjacentes.


METAR-TAF: